Latest Weather Observations for Combienbar

IDV60801

Issued at 6:31 pm EDT Friday 12 February 2016 (issued every 30 minutes, with the page automatically refreshed every 10 minutes)

About weather observations | Map of weather stations | Latest weather observations for VIC | Other Formats
Station Details ID: 084143 Name: COMBIENBAR AWS Lat: -37.34 Lon: 149.02 Height: 640.0 m
Data from the previous 72 hours. | See also: Recent months at Combienbar
Date/Time
EDT
Temp
°C
App
Temp
°C
Dew
Point
Rel
Hum
%
Delta-T
°C
Wind Press
QNH
hPa
Press
MSL
hPa
Rain
since 9 am
mm
Dir
 
Spd
km/h
Gust
km/h
Spd
kts
Gust
kts
12/06:30pm 23.7 26.8 18.6 73 3.3 CALM 0 0 0 0 1015.6 1013.0 0.0
12/06:00pm 24.9 27.8 18.1 66 4.4 CALM 0 2 0 1 1015.4 1012.8 0.0
12/05:30pm 25.1 28.0 18.1 65 4.5 CALM 0 2 0 1 1015.2 1012.6 0.0
12/05:00pm 26.1 29.0 18.2 61 5.1 CALM 0 2 0 1 1015.4 1012.8 0.0
12/04:30pm 25.9 28.8 18.1 62 5.1 CALM 0 2 0 1 1015.5 1012.9 0.0
12/04:00pm 26.4 29.7 19.0 63 4.9 CALM 0 4 0 2 1015.7 1013.1 0.0
12/03:30pm 25.6 28.8 18.8 66 4.4 CALM 0 2 0 1 1016.0 1013.4 0.0
12/03:00pm 25.9 29.0 19.5 68 4.2 SSW 2 6 1 3 1016.3 1013.6 0.0
12/02:30pm 25.5 28.5 19.2 68 4.1 SSW 2 4 1 2 1016.5 1013.9 0.0
12/02:00pm 25.0 28.3 19.1 70 3.9 CALM 0 0 0 0 1016.7 1014.1 0.0
12/01:30pm 24.1 27.1 18.5 71 3.6 CALM 0 4 0 2 1017.0 1014.4 0.0
12/01:00pm 23.5 26.2 18.6 74 3.2 SW 2 4 1 2 1017.2 1014.6 0.0
12/12:30pm 22.4 24.7 17.8 75 2.9 SW 2 4 1 2 1017.4 1014.8 0.0
12/12:00pm 20.7 22.7 16.9 79 2.4 SSW 2 6 1 3 1017.7 1015.1 0.0
12/11:30am 20.2 22.6 17.0 82 2.0 CALM 0 0 0 0 1018.0 1015.4 0.0
12/11:00am 18.8 21.0 16.6 87 1.4 CALM 0 6 0 3 1018.2 1015.6 0.0
12/10:30am 17.6 19.7 17.3 98 0.2 NNE 2 4 1 2 1018.4 1015.8 0.0
12/10:00am 15.7 17.5 15.4 98 0.2 CALM 0 0 0 0 1018.7 1016.1 0.0
12/09:30am 14.9 16.4 14.6 98 0.2 CALM 0 4 0 2 1019.0 1016.4 0.0
12/09:00am 14.8 16.2 14.5 98 0.2 CALM 0 0 0 0 1019.1 1016.5 0.0
12/08:30am 15.0 16.5 14.7 98 0.2 CALM 0 0 0 0 1019.0 1016.4 0.0
12/08:00am 14.7 16.1 14.4 98 0.2 CALM 0 0 0 0 1018.5 1015.9 0.0
12/07:30am 14.4 15.7 14.1 98 0.2 CALM 0 0 0 0 1018.1 1015.5 0.0
12/07:00am 14.4 14.9 14.1 98 0.2 NE 4 7 2 4 1017.4 1014.8 0.0
12/06:30am 14.3 14.8 14.0 98 0.2 NNE 4 6 2 3 1017.4 1014.8 0.0
12/06:00am 14.6 15.6 14.3 98 0.2 NE 2 6 1 3 1017.3 1014.7 0.0
12/05:30am 14.5 15.1 14.2 98 0.2 NNE 4 7 2 4 1017.1 1014.5 0.0
12/05:00am 14.4 15.7 14.1 98 0.2 CALM 0 2 0 1 1017.1 1014.5 0.0
12/04:30am 14.2 15.4 13.9 98 0.2 CALM 0 0 0 0 1017.2 1014.6 0.0
12/04:00am 14.2 15.4 13.9 98 0.2 CALM 0 0 0 0 1017.4 1014.8 0.0
12/03:30am 14.3 15.6 14.0 98 0.2 CALM 0 0 0 0 1017.7 1015.1 0.0
12/03:00am 14.3 15.6 14.0 98 0.2 CALM 0 0 0 0 1018.1 1015.5 0.0
12/02:30am 14.3 15.6 14.0 98 0.2 CALM 0 0 0 0 1018.2 1015.6 0.0
12/02:00am 14.2 15.4 13.9 98 0.2 CALM 0 0 0 0 1018.4 1015.8 0.0
12/01:30am 14.2 15.4 13.9 98 0.2 CALM 0 0 0 0 1018.5 1015.9 0.0
12/01:00am 14.1 15.3 13.8 98 0.2 CALM 0 0 0 0 1018.7 1016.1 0.0
12/12:30am 14.1 15.3 13.8 98 0.2 CALM 0 0 0 0 1018.9 1016.3 0.0
12/12:00am 14.3 15.5 13.8 97 0.3 CALM 0 0 0 0 1018.9 1016.3 0.0
 
Date/Time
EDT
Temp
°C
App
Temp
°C
Dew
Point
Rel
Hum
%
Delta-T
°C
Wind Press
QNH
hPa
Press
MSL
hPa
Rain
since 9 am
mm
Dir
 
Spd
km/h
Gust
km/h
Spd
kts
Gust
kts
11/11:30pm 14.4 15.6 13.9 97 0.3 CALM 0 0 0 0 1019.1 1016.5 0.0
11/11:00pm 14.6 15.9 14.1 97 0.3 CALM 0 0 0 0 1019.4 1016.9 0.0
11/10:30pm 14.4 15.6 13.9 97 0.3 CALM 0 0 0 0 1019.6 1017.0 0.0
11/10:00pm 14.5 15.8 14.0 97 0.3 CALM 0 0 0 0 1019.6 1017.0 0.0
11/09:30pm 14.6 15.9 14.0 96 0.3 CALM 0 0 0 0 1019.2 1016.7 0.0
11/09:00pm 14.7 15.9 13.9 95 0.5 CALM 0 0 0 0 1018.7 1016.1 0.0
11/08:30pm 15.1 16.4 14.1 94 0.6 CALM 0 0 0 0 1018.5 1015.9 0.0
11/08:00pm 15.5 16.9 14.4 93 0.6 CALM 0 0 0 0 1018.1 1015.5 0.0
11/07:30pm 15.7 17.2 14.6 93 0.6 CALM 0 0 0 0 1017.7 1015.1 0.0
11/07:00pm 16.0 17.5 14.7 92 0.8 CALM 0 0 0 0 1017.4 1014.8 0.0
11/06:30pm 16.1 17.7 14.8 92 0.8 CALM 0 0 0 0 1017.5 1014.9 0.0
11/06:00pm 16.4 18.1 15.1 92 0.8 CALM 0 0 0 0 1017.2 1014.6 0.0
11/05:30pm 16.6 18.3 15.1 91 0.9 CALM 0 2 0 1 1017.0 1014.4 0.0
11/05:00pm 17.1 18.8 15.1 88 1.2 CALM 0 2 0 1 1016.9 1014.3 0.0
11/04:30pm 18.2 20.1 15.8 86 1.5 CALM 0 4 0 2 1016.7 1014.1 0.0
11/04:00pm 19.3 21.3 16.0 81 2.0 CALM 0 2 0 1 1016.7 1014.1 0.0
11/03:30pm 19.7 21.8 16.2 80 2.2 CALM 0 0 0 0 1016.8 1014.2 0.0
11/03:00pm 19.4 21.4 16.1 81 2.0 CALM 0 0 0 0 1017.1 1014.5 0.0
11/02:30pm 19.0 20.9 15.7 81 2.0 CALM 0 0 0 0 1017.4 1014.8 0.0
11/02:00pm 18.6 20.5 15.7 83 1.8 CALM 0 0 0 0 1017.9 1015.3 0.0
11/01:30pm 18.9 20.8 15.8 82 1.9 CALM 0 0 0 0 1018.2 1015.6 0.0
11/01:00pm 17.7 19.4 15.1 85 1.6 CALM 0 0 0 0 1018.4 1015.8 0.0
11/12:30pm 17.3 19.0 15.3 88 1.2 CALM 0 4 0 2 1018.6 1016.0 0.0
11/12:00pm 16.7 18.4 15.1 90 1.0 CALM 0 0 0 0 1018.9 1016.3 0.0
11/11:30am 15.9 17.3 14.4 91 0.9 CALM 0 2 0 1 1018.9 1016.3 0.0
11/11:00am 15.4 16.8 14.4 94 0.6 CALM 0 0 0 0 1018.9 1016.3 0.0
11/10:30am 15.4 17.0 14.8 96 0.4 CALM 0 0 0 0 1018.9 1016.3 0.0
11/10:00am 15.2 16.7 14.6 96 0.4 CALM 0 0 0 0 1018.9 1016.3 0.0
11/09:30am 14.6 15.9 14.0 96 0.3 CALM 0 0 0 0 1018.8 1016.2 0.0
11/09:00am 14.4 15.6 13.8 96 0.3 CALM 0 0 0 0 1018.7 1016.1 0.0
11/08:30am 14.1 15.2 13.5 96 0.3 CALM 0 0 0 0 1018.6 1016.0 0.0
11/08:00am 14.1 15.2 13.5 96 0.3 CALM 0 0 0 0 1018.3 1015.7 0.0
11/07:30am 13.9 14.9 13.1 95 0.5 CALM 0 0 0 0 1018.1 1015.5 0.0
11/07:00am 13.9 14.9 13.1 95 0.5 CALM 0 0 0 0 1017.7 1015.1 0.0
11/06:30am 14.3 15.5 13.7 96 0.3 CALM 0 0 0 0 1017.4 1014.8 0.0
11/06:00am 14.3 15.5 13.7 96 0.3 CALM 0 0 0 0 1017.0 1014.4 0.0
11/05:30am 14.3 15.5 13.7 96 0.3 CALM 0 0 0 0 1017.0 1014.4 0.0
11/05:00am 14.2 15.3 13.6 96 0.3 CALM 0 0 0 0 1016.9 1014.3 0.0
11/04:30am 14.2 15.3 13.6 96 0.3 CALM 0 0 0 0 1016.8 1014.2 0.0
11/04:00am 13.9 14.8 13.0 94 0.5 CALM 0 0 0 0 1016.6 1014.0 0.0
11/03:30am 14.2 15.2 13.1 93 0.6 CALM 0 0 0 0 1016.4 1013.7 0.0
11/03:00am 14.9 15.4 11.7 81 1.8 CALM 0 0 0 0 1016.6 1014.0 0.0
11/02:30am 15.1 16.0 12.8 86 1.3 CALM 0 0 0 0 1016.7 1014.1 0.0
11/02:00am 15.2 16.2 13.1 87 1.2 CALM 0 0 0 0 1016.9 1014.3 0.0
11/01:30am 16.0 16.2 10.5 70 3.0 CALM 0 0 0 0 1017.0 1014.4 0.0
11/01:00am 15.5 16.3 12.4 82 1.8 CALM 0 0 0 0 1017.3 1014.7 0.0
11/12:30am 15.7 17.2 14.6 93 0.6 CALM 0 0 0 0 1017.5 1014.9 0.0
11/12:00am 15.9 17.6 15.1 95 0.5 CALM 0 0 0 0 1017.3 1014.7 0.0
 
Date/Time
EDT
Temp
°C
App
Temp
°C
Dew
Point
Rel
Hum
%
Delta-T
°C
Wind Press
QNH
hPa
Press
MSL
hPa
Rain
since 9 am
mm
Dir
 
Spd
km/h
Gust
km/h
Spd
kts
Gust
kts
10/11:30pm 16.1 17.8 15.3 95 0.5 CALM 0 0 0 0 1017.2 1014.6 0.0
10/11:00pm 16.1 17.5 15.5 96 0.4 NNE 2 4 1 2 1017.4 1014.8 0.0
10/10:30pm 16.4 18.0 15.9 97 0.3 WNW 2 6 1 3 1017.6 1015.0 0.0
10/10:00pm 16.1 17.9 15.5 96 0.4 CALM 0 0 0 0 1017.6 1015.0 0.0
10/09:30pm 16.1 17.9 15.5 96 0.4 CALM 0 4 0 2 1017.6 1015.0 0.0
10/09:00pm 16.2 18.0 15.6 96 0.4 CALM 0 0 0 0 1017.6 1015.0 0.0
10/08:30pm 16.1 17.8 15.3 95 0.5 CALM 0 0 0 0 1017.5 1014.9 0.0
10/08:00pm 16.3 18.1 15.5 95 0.5 CALM 0 0 0 0 1017.2 1014.6 0.0
10/07:30pm 16.6 18.4 15.6 94 0.6 CALM 0 0 0 0 1016.7 1014.1 0.0
10/07:00pm 16.5 18.3 15.5 94 0.6 CALM 0 2 0 1 1016.4 1013.7 0.0
10/06:30pm 17.2 19.2 15.9 92 0.8 CALM 0 2 0 1 1016.0 1013.4 0.0
10/06:00pm 17.8 19.9 16.3 91 0.9 CALM 0 0 0 0 1015.8 1013.2 0.0
10/05:30pm 18.5 20.8 16.7 89 1.1 CALM 0 2 0 1 1015.5 1012.9 0.0
10/05:00pm 19.5 21.9 16.9 85 1.6 CALM 0 6 0 3 1015.3 1012.7 0.0
10/04:30pm 20.1 22.2 17.3 84 1.8 SSW 2 6 1 3 1015.1 1012.5 0.0
10/04:00pm 21.6 23.7 17.2 76 2.8 SSW 2 9 1 5 1015.1 1012.5 0.0
10/03:30pm 23.1 25.7 18.4 75 3.0 SSW 2 6 1 3 1015.2 1012.6 0.0
10/03:00pm 23.1 25.6 18.2 74 3.2 SW 2 6 1 3 1015.4 1012.8 0.0
10/02:30pm 23.6 25.9 17.8 70 3.7 SSW 2 6 1 3 1015.6 1013.0 0.0
10/02:00pm 22.8 25.1 17.7 73 3.3 SSW 2 6 1 3 1015.8 1013.2 0.0
10/01:30pm 22.4 25.0 17.5 74 3.1 CALM 0 2 0 1 1015.9 1013.3 0.0
10/01:00pm 22.1 24.5 17.0 73 3.2 CALM 0 4 0 2 1016.2 1013.5 0.0
10/12:30pm 21.8 23.8 17.0 74 3.0 SSW 2 7 1 4 1016.5 1013.9 0.0
10/12:00pm 22.0 24.2 17.4 75 2.9 SW 2 4 1 2 1016.5 1013.9 0.0
10/11:30am 22.4 25.1 17.8 75 2.9 CALM 0 2 0 1 1016.6 1014.0 0.0
10/11:00am 21.6 23.9 16.8 74 3.0 CALM 0 2 0 1 1016.7 1014.1 0.0
10/10:30am 20.6 22.7 16.2 76 2.7 CALM 0 2 0 1 1016.8 1014.2 0.0
10/10:00am 19.9 21.4 14.7 72 3.1 CALM 0 0 0 0 1016.9 1014.3 0.0
10/09:30am 20.6 22.6 16.0 75 2.8 CALM 0 0 0 0 1016.7 1014.1 0.0
10/09:00am 20.4 22.2 15.4 73 3.0 CALM 0 0 0 0 1016.5 1013.9 0.0
10/08:30am 20.5 22.4 15.7 74 2.9 CALM 0 2 0 1 1016.4 1013.7 0.0
10/08:00am 18.1 19.7 15.0 82 1.9 CALM 0 0 0 0 1016.3 1013.6 0.0
10/07:30am 19.1 21.0 15.8 81 2.0 CALM 0 0 0 0 1016.2 1013.5 0.0
10/07:00am 16.4 17.3 12.8 79 2.1 CALM 0 0 0 0 1016.3 1013.6 0.0
10/06:30am 17.3 18.1 12.6 74 2.7 CALM 0 0 0 0 1015.9 1013.3 0.0
10/06:00am 17.6 18.4 12.5 72 2.9 CALM 0 0 0 0 1015.7 1013.1 0.0
10/05:30am 17.5 18.3 12.4 72 2.9 CALM 0 0 0 0 1015.6 1013.0 0.0
10/05:00am 17.5 18.0 11.5 68 3.4 CALM 0 0 0 0 1015.6 1013.0 0.0
10/04:30am 17.9 18.5 11.9 68 3.4 CALM 0 0 0 0 1015.6 1013.0 0.0
10/04:00am 18.2 18.6 11.3 64 3.9 CALM 0 0 0 0 1015.8 1013.2 0.0
10/03:30am 18.6 19.0 11.2 62 4.2 CALM 0 0 0 0 1015.9 1013.3 0.0
10/03:00am 18.9 19.2 11.0 60 4.4 CALM 0 0 0 0 1016.0 1013.4 0.0
10/02:30am 19.9 20.2 10.9 56 5.1 CALM 0 0 0 0 1016.4 1013.7 0.0
10/02:00am 19.6 19.8 11.9 61 4.4 N 2 6 1 3 1016.8 1014.2 0.0
10/01:30am 19.8 20.2 11.3 58 4.8 CALM 0 4 0 2 1017.2 1014.6 0.0
10/01:00am 19.7 20.1 12.5 63 4.2 WNW 2 4 1 2 1017.5 1014.9 0.0
10/12:30am 19.1 20.2 13.5 70 3.3 CALM 0 0 0 0 1018.0 1015.4 0.0
10/12:00am 18.9 19.9 13.3 70 3.3 CALM 0 0 0 0 1018.4 1015.8 0.0
 
Date/Time
EDT
Temp
°C
App
Temp
°C
Dew
Point
Rel
Hum
%
Delta-T
°C
Wind Press
QNH
hPa
Press
MSL
hPa
Rain
since 9 am
mm
Dir
 
Spd
km/h
Gust
km/h
Spd
kts
Gust
kts
09/11:30pm 18.8 20.0 13.9 73 2.9 CALM 0 0 0 0 1018.7 1016.1 0.0
09/11:00pm 18.2 19.4 13.9 76 2.5 CALM 0 0 0 0 1019.0 1016.4 0.0
09/10:30pm 18.8 20.1 14.1 74 2.8 CALM 0 6 0 3 1019.3 1016.8 0.0
09/10:00pm 18.8 19.7 14.1 74 2.8 NNW 2 4 1 2 1019.3 1016.8 0.0
09/09:30pm 18.4 19.4 14.3 77 2.4 NNE 2 6 1 3 1019.2 1016.7 0.0
09/09:00pm 18.9 20.2 14.2 74 2.8 CALM 0 2 0 1 1019.1 1016.5 0.0
09/08:30pm 19.3 20.6 14.1 72 3.1 CALM 0 0 0 0 1019.2 1016.7 0.0
09/08:00pm 20.0 21.2 13.9 68 3.6 CALM 0 4 0 2 1019.2 1016.7 0.0
09/07:30pm 20.7 21.8 13.6 64 4.2 CALM 0 6 0 3 1019.0 1016.4 0.0
09/07:00pm 21.6 22.3 13.5 60 4.8 NNE 2 4 1 2 1019.0 1016.4 0.0

Other Formats:

Comma delimited format used in spreadsheet applications
http://www.bom.gov.au/fwo/IDV60801/IDV60801.94914.axf

JavaScript Object Notation format (JSON) in row-major order
http://www.bom.gov.au/fwo/IDV60801/IDV60801.94914.json